Apollo Commercial Real Estat (ARI) Latest Bloomsberg Price


Mffais Ranking #276 Overall / #3 Industry
Industry: Mortgage Finance

Number of Companies: 125 (Ranking #1380 Overall/#14 Industry)
Inflow: $ 42,354 (K) (Ranking #1394 Overall/#13 Industry)
Outflow: $ -11,150 (K)
Mffais Flow: $ 31,204 (K) (Ranking #276 Overall/#3 Industry)


Receive a FREE weekly executive review of stocks moving into the top 10, taking the top industy spot or moving up within their industry. Sent directly to your Inbox every Saturday. Sign up today and get last week's review immediately sent to you.

We value and respect your privacy. Please read our Terms and Conditions which states our firm commitment to your privacy. Your email address will not be shared with a third party, nor will it be sold or used for purposes other than subscription for the weekly review.

Owner CPOR Shares Action Qty Chg Invested (K) Total Current Value (K)
American Financial Group Inc 2016-09-30 375,226 New Holding 375,226 $ 6,198 $ 6,198
Kennedy Capital Management Inc 2016-09-30 199,371 New Holding 199,371 $ 3,293 $ 3,293
Bessemer Group Inc 2016-09-30 179,737 New Holding 179,737 $ 2,969 $ 2,969
Northern Trust Corp 2016-09-30 796,795 Added More 170,035 $ 2,808 $ 13,163
Foundry Partners Llc 2016-09-30 166,970 New Holding 166,970 $ 2,758 $ 2,758
Raiff Partners Inc 2016-09-30 150,000 New Holding 150,000 $ 2,478 $ 2,478
Yorktown Management Research Co Inc 2016-09-30 382,466 Added More 112,466 $ 1,857 $ 6,318
Orinda Asset Management Llc 2016-09-30 307,286 Added More 110,588 $ 1,826 $ 5,076
Glg Partners Lp 2016-09-30 100,948 New Holding 100,948 $ 1,667 $ 1,667
Cipher Capital Lp 2016-09-30 316,327 Added More 94,653 $ 1,563 $ 5,225
Global X Management Co Llc 2016-09-30 896,527 Added More 94,482 $ 1,560 $ 14,810
Parametric Portfolio Associates Llc 2016-09-30 212,975 Added More 70,131 $ 1,158 $ 3,518
Jane Street Group Llc 2016-09-30 66,162 New Holding 66,162 $ 1,092 $ 1,092
Blackrock Investment Management Llc 2016-09-30 300,281 Added More 56,053 $ 925 $ 4,960
Rothschild Asset Management Inc 2016-09-30 496,364 Added More 52,366 $ 865 $ 8,199
Caprock Group Inc 2016-09-30 105,965 Added More 44,458 $ 734 $ 1,750
Cubist Systematic Strategies Llc 2016-09-30 38,445 New Holding 38,445 $ 635 $ 635
Indexiq Advisors Llc 2016-09-30 80,582 Added More 33,704 $ 556 $ 1,331
California State Teachers Retirement System 2016-09-30 152,732 Added More 29,444 $ 486 $ 2,523
Cambridge Investment Research Advisors Inc 2016-09-30 107,246 Added More 27,888 $ 460 $ 1,771
Sg Americas Securities Llc 2016-09-30 26,785 New Holding 26,785 $ 442 $ 442
Dynamic Technology Lab Private Ltd 2016-09-30 24,198 New Holding 24,198 $ 399 $ 399
Wedbush Securities Inc 2016-09-30 23,802 New Holding 23,802 $ 393 $ 393
Swiss National Bank 2016-09-30 130,539 Added More 22,799 $ 376 $ 2,156
Teachers Advisors Inc 2016-09-30 163,966 Added More 20,900 $ 345 $ 2,708
New York State Common Retirement Fund 2016-09-30 74,434 Added More 18,534 $ 306 $ 1,229
Quadrature Capital Ltd 2016-09-30 17,228 New Holding 17,228 $ 284 $ 284
Van Eck Associates Corp 2016-09-30 210,676 Added More 17,005 $ 280 $ 3,480
Kidder Stephen W 2016-09-30 16,189 New Holding 16,189 $ 267 $ 267
Ing Groep Nv 2016-09-30 506,838 Added More 14,455 $ 238 $ 8,372
Boothbay Fund Management Llc 2016-09-30 14,124 New Holding 14,124 $ 233 $ 233
Tower Research Capital Llc Trc 2016-09-30 15,525 Added More 12,449 $ 205 $ 256
Creative Planning 2016-09-30 13,296 Added More 12,232 $ 202 $ 219
Wespac Advisors Llc 2016-09-30 58,324 Added More 11,999 $ 198 $ 963
Gsa Capital Partners Llp 2016-09-30 11,900 New Holding 11,900 $ 196 $ 196
Sei Investments Co 2016-09-30 47,214 Added More 11,885 $ 196 $ 779
Clinton Group Inc 2016-09-30 80,992 Added More 11,515 $ 190 $ 1,337
Oppenheimer Co Inc 2016-09-30 53,499 Added More 11,375 $ 187 $ 883
Nationwide Fund Advisors 2016-09-30 47,425 Added More 8,728 $ 144 $ 783
Cacti Asset Management Llc 2016-09-30 28,348 Added More 8,348 $ 137 $ 468
American International Group Inc 2016-09-30 41,594 Added More 7,747 $ 127 $ 687
Geneva Advisors Llc 2016-09-30 51,191 Added More 7,046 $ 116 $ 845
Aperio Group Llc 2016-09-30 268,661 Added More 6,349 $ 104 $ 4,438
Blackrock Inc 2016-09-30 24,404 Added More 6,020 $ 99 $ 403
Ladenburg Thalmann Financial Services Inc 2016-09-30 47,974 Added More 5,966 $ 98 $ 792
Advisor Group Inc 2016-09-30 8,075 Added More 5,854 $ 96 $ 133
Mackenzie Financial Corp 2016-09-30 37,505 Added More 5,197 $ 85 $ 619
Kcg Holdings Inc 2016-09-30 21,135 Added More 4,338 $ 71 $ 349
Focused Wealth Management Inc 2016-09-30 45,848 Added More 3,699 $ 61 $ 757
Qs Investors Llc 2016-09-30 16,052 Added More 3,577 $ 59 $ 265
Strs Ohio 2016-09-30 23,159 Added More 3,559 $ 58 $ 382
Gam Holding Ag 2016-09-30 2,400 New Holding 2,400 $ 39 $ 39
Sphinx Trading Lp 2016-09-30 3,002 Added More 2,002 $ 33 $ 49
Envestnet Asset Management Inc 2016-09-30 1,845 New Holding 1,845 $ 30 $ 30
Legal General Group Plc 2016-09-30 9,542 Added More 1,668 $ 27 $ 157
Stifel Financial Corp 2016-09-30 35,348 Added More 1,483 $ 24 $ 583
Point72 Asia Hong Kong Ltd 2016-09-30 1,142 New Holding 1,142 $ 18 $ 18
Baldwin Brothers Inc Ma 2016-09-30 1,000 New Holding 1,000 $ 16 $ 16
Nuveen Fund Advisors Llc 2016-09-30 94,831 Added More 691 $ 11 $ 1,566
Enterprise Financial Services Corp 2016-09-30 631 New Holding 631 $ 10 $ 10
Us Bancorp De 2016-09-30 3,465 Added More 585 $ 9 $ 57
Pnc Financial Services Group Inc 2016-09-30 7,034 Added More 540 $ 8 $ 116
Penserra Capital Management Llc 2016-09-30 1,025 Added More 366 $ 6 $ 16
Next Financial Group Inc 2016-09-30 875 Added More 275 $ 4 $ 14
Benjamin F Edwards Company Inc 2016-09-30 100 New Holding 100 $ 1 $ 1
Financial Architects Inc 2016-09-30 83 New Holding 83 $ 1 $ 1
Proficio Capital Partners Llc 2016-09-30 65 New Holding 65 $ 1 $ 1
Simplex Trading Llc 2016-09-30 16 New Holding 16 $ 0 $ 0
Wfg Advisors Lp 2016-09-30 75 No Change 0 $ 0 $ 1
Blackstone Group L P 2016-09-30 1,847,019 No Change 0 $ 0 $ 30,512
Zurcher Kantonalbank Zurich Cantonalbank 2016-09-30 1,275 No Change 0 $ 0 $ 21
Harel Insurance Investments Financial Services Ltd 2016-09-30 3,142 No Change 0 $ 0 $ 51
Entrustpermal Management Llc 2016-09-30 151,400 No Change 0 $ 0 $ 2,501
Forum Securities Ltd 2016-09-30 117,826 No Change 0 $ 0 $ 1,946
Finemark National Bank Trust 2016-09-30 6,000 No Change 0 $ 0 $ 99
Alpine Woods Capital Investors Llc 2016-09-30 46,644 No Change 0 $ 0 $ 770
Carroll Financial Associates Inc 2016-09-30 300 No Change 0 $ 0 $ 4
West Family Investments Inc 2016-09-30 389,286 No Change 0 $ 0 $ 6,431
Allsquare Wealth Management Llc 2016-09-30 5,000 No Change 0 $ 0 $ 82
Dreman Value Management L L C 2016-09-30 128 No Change 0 $ 0 $ 2
Financial Counselors Inc 2016-06-30 34,000 No Change 0 $ 0 $ 546
State Treasurer State Of Michigan 2016-09-30 2,980,768 No Change 0 $ 0 $ 49,242
First Manhattan Co 2016-09-30 1,000 No Change 0 $ 0 $ 16
Thrivent Financial For Lutherans 2016-09-30 12,500 No Change 0 $ 0 $ 206
Fifth Third Bancorp 2016-09-30 3,000 No Change 0 $ 0 $ 49
Piedmont Investment Advisors Llc 2016-09-30 195 Sold Some -11 $ -0 $ 3
Bronfman E L Rothschild L P 2016-09-30 0 Sold All -13 $ -0 $ 0
Advisors Asset Management Inc 2016-09-30 1,267 Sold Some -34 $ -0 $ 20
Ifp Advisors Inc 2016-09-30 8,989 Sold Some -116 $ -1 $ 148
Sonora Investment Management Llc 2016-09-30 1,000 Sold Some -400 $ -6 $ 16
Quantbot Technologies Lp 2016-09-30 0 Sold All -474 $ -7 $ 0
Sigma Planning Corp 2016-09-30 24,945 Sold Some -478 $ -7 $ 412
Koshinski Asset Management Inc 2016-09-30 67,125 Sold Some -495 $ -8 $ 1,108
Baker Ellis Asset Management Llc 2016-09-30 30,182 Sold Some -500 $ -8 $ 498
Roble Belko Company Inc 2016-09-30 111,688 Sold Some -542 $ -8 $ 1,845
Msi Financial Services Inc 2016-09-30 382 Sold Some -547 $ -9 $ 6
Interocean Capital Llc 2016-09-30 18,880 Sold Some -700 $ -11 $ 311
Raymond James Associates 2016-09-30 28,996 Sold Some -774 $ -12 $ 479
Group One Trading L P 2016-09-30 0 Sold All -1,000 $ -16 $ 0
Integrated Wealth Management 2016-09-30 1,500 Sold Some -1,700 $ -28 $ 24
Advisors Preferred Llc 2016-09-30 21,776 Sold Some -2,086 $ -34 $ 359
Cutler Group Lp 2016-09-30 1,900 Sold Some -2,300 $ -37 $ 31
Raymond James Financial Services Advisors Inc 2016-09-30 83,566 Sold Some -2,734 $ -45 $ 1,380
Panagora Asset Management Inc 2016-09-30 0 Sold All -2,753 $ -45 $ 0
Shell Asset Management Co 2016-09-30 96,057 Sold Some -4,401 $ -72 $ 1,586
Sunbelt Securities Inc 2016-09-30 0 Sold All -4,500 $ -74 $ 0
First Mercantile Trust Co 2016-09-30 0 Sold All -5,250 $ -86 $ 0
Opus Capital Group Llc 2016-09-30 278,293 Sold Some -5,507 $ -90 $ 4,597
Horizon Investments Llc 2016-09-30 11,588 Sold Some -6,433 $ -106 $ 191
Founders Financial Securities Llc 2016-09-30 11,385 Sold Some -6,492 $ -107 $ 188
Clarivest Asset Management Llc 2016-09-30 106,000 Sold Some -8,100 $ -133 $ 1,751
Martingale Asset Management L P 2016-09-30 35,012 Sold Some -8,409 $ -138 $ 578
Rhumbline Advisers 2016-09-30 99,480 Sold Some -11,888 $ -196 $ 1,643
Guggenheim Capital Llc 2016-09-30 157,762 Sold Some -13,303 $ -219 $ 2,606
Pacad Investment Ltd 2016-09-30 0 Sold All -15,546 $ -256 $ 0
Deere Co 2016-09-30 34,803 Sold Some -15,815 $ -261 $ 574
Dupont Capital Management Corp 2016-09-30 67,934 Sold Some -17,316 $ -286 $ 1,122
Teacher Retirement System Of Texas 2016-09-30 97,892 Sold Some -22,682 $ -374 $ 1,617
Fuller Thaler Asset Management Inc 2016-09-30 3,975,130 Sold Some -30,809 $ -508 $ 65,669
Kames Capital Plc 2016-09-30 404,047 Sold Some -32,417 $ -535 $ 6,674
Putnam Investments Llc 2016-09-30 58,802 Sold Some -39,290 $ -649 $ 971
Sterling Capital Management Llc 2016-09-30 0 Sold All -42,933 $ -709 $ 0
Emerald Acquisition Ltd 2016-09-30 84,230 Sold Some -84,813 $ -1,401 $ 1,391
Grantham Mayo Van Otterloo Co Llc 2016-09-30 57,029 Sold Some -128,636 $ -2,125 $ 942
Menta Capital Llc 2016-09-30 0 Sold All -152,748 $ -2,523 $ 0